ADDS METAR Data INFO
IDs: Format: Raw Decoded Include TAF

Data at: 0331 UTC 16 Dec 2017

KCZT 160315Z AUTO 21005KT 10SM OVC090 10/06 A3027 RMK AO2
KCZT 160255Z AUTO 20005KT 10SM OVC090 10/05 A3027 RMK AO2
KCZT 160235Z AUTO 20005KT 10SM OVC090 10/05 A3027 RMK AO2
KCZT 160215Z AUTO 20004KT 10SM OVC090 10/05 A3028 RMK AO2
KCZT 160155Z AUTO 20004KT 10SM OVC090 10/04 A3028 RMK AO2
KCZT 160135Z AUTO 21005KT 10SM OVC090 10/04 A3028 RMK AO2
KCZT 160115Z AUTO 22004KT 10SM OVC090 10/04 A3028 RMK AO2
KCZT 160055Z AUTO 22004KT 10SM OVC090 11/04 A3028 RMK AO2
KCZT 160035Z AUTO 22003KT 10SM BKN090 11/04 A3027 RMK AO2
KCZT 160015Z AUTO 23004KT 10SM OVC090 11/03 A3027 RMK AO2
KCZT 152355Z AUTO 22004KT 10SM BKN090 11/04 A3027 RMK AO2
KCZT 152335Z AUTO 21005KT 10SM BKN090 11/04 A3026 RMK AO2
KCZT 152315Z AUTO 19006KT 10SM OVC090 12/01 A3026 RMK AO2
KCZT 152255Z AUTO 19003KT 10SM OVC090 12/00 A3026 RMK AO2
KCZT 152235Z AUTO 20003KT 10SM OVC090 12/00 A3026 RMK AO2
KCZT 152215Z AUTO 21004KT 10SM OVC090 13/00 A3027 RMK AO2
KCZT 152155Z AUTO 00000KT 10SM OVC090 13/00 A3028 RMK AO2
KCZT 152135Z AUTO 00000KT 10SM OVC090 13/00 A3028 RMK AO2
KCZT 152115Z AUTO 00000KT 10SM OVC090 12/00 A3028 RMK AO2
KCZT 152055Z AUTO 00000KT 10SM BKN090 13/00 A3028 RMK AO2
KCZT 152035Z AUTO 00000KT 10SM SCT120 13/00 A3028 RMK AO2
KCZT 152015Z AUTO 00000KT 10SM SCT120 13/00 A3026 RMK AO2
KCZT 151955Z AUTO 00000KT 10SM BKN120 12/00 A3027 RMK AO2
KCZT 151935Z AUTO 00000KT 10SM SCT120 12/00 A3028 RMK AO2
KCZT 151915Z AUTO 02004KT 10SM CLR 13/00 A3030 RMK AO2
KCZT 151855Z AUTO 36003KT 10SM CLR 12/00 A3031 RMK AO2
KCZT 151835Z AUTO 35003KT 10SM CLR 13/00 A3033 RMK AO2
KCZT 151815Z AUTO 00000KT 10SM CLR 13/00 A3034 RMK AO2
KCZT 151755Z AUTO 04003KT 10SM CLR 13/00 A3034 RMK AO2
KCZT 151735Z AUTO 00000KT 10SM CLR 13/00 A3035 RMK AO2
KCZT 151715Z AUTO 01005KT 10SM CLR 12/01 A3035 RMK AO2
KCZT 151655Z AUTO 35004KT 10SM SCT100 12/03 A3036 RMK AO2
KCZT 151635Z AUTO 36005KT 10SM BKN100 11/03 A3036 RMK AO2
KCZT 151615Z AUTO 00000KT 10SM OVC100 10/05 A3036 RMK AO2
KCZT 151555Z AUTO 32003KT 10SM OVC100 10/05 A3036 RMK AO2
KCZT 151535Z AUTO 31003KT 10SM OVC110 09/06 A3035 RMK AO2
KCZT 151515Z AUTO 00000KT 10SM OVC110 09/05 A3034 RMK AO2
KCZT 151455Z AUTO 00000KT 10SM OVC100 09/05 A3033 RMK AO2
KCZT 151435Z AUTO 34005KT 10SM OVC100 08/05 A3033 RMK AO2
KCZT 151415Z AUTO 34004KT 10SM OVC100 08/05 A3032 RMK AO2
KCZT 151355Z AUTO 32004KT 10SM SCT070 OVC090 08/05 A3031 RMK AO2
KCZT 151335Z AUTO 33003KT 10SM -DZ BKN070 OVC090 08/05 A3030 RMK AO2
KCZT 151315Z AUTO 00000KT 10SM -DZ OVC070 08/05 A3029 RMK AO2
KCZT 151255Z AUTO 30003KT 10SM -RA SCT050 BKN060 OVC070 08/05 A3030 RMK AO2
KCZT 151235Z AUTO 32003KT 10SM BKN060 BKN070 OVC085 08/05 A3029 RMK AO2
KCZT 151215Z AUTO 32003KT 10SM -RA SCT060 OVC070 08/05 A3028 RMK AO2
KCZT 151155Z AUTO 33003KT 10SM -RA OVC060 08/04 A3029 RMK AO2
KCZT 151135Z AUTO 00000KT 10SM -RA BKN060 OVC085 09/03 A3028 RMK AO2
KCZT 151115Z AUTO 01003KT 10SM SCT055 SCT065 OVC085 10/01 A3028 RMK AO2
KCZT 151055Z AUTO 04004KT 10SM OVC085 10/01 A3028 RMK AO2
KCZT 151035Z AUTO 05004KT 10SM OVC085 10/02 A3027 RMK AO2
KCZT 151015Z AUTO 03006KT 10SM SCT065 OVC085 10/02 A3025 RMK AO2
KCZT 150955Z AUTO 05003KT 10SM OVC065 10/02 A3025 RMK AO2
KCZT 150935Z AUTO 06005KT 10SM -RA OVC065 10/02 A3025 RMK AO2
KCZT 150915Z AUTO 04007KT 10SM -RA BKN065 OVC075 11/02 A3025 RMK AO2
KCZT 150855Z AUTO 04006KT 7SM -RA SCT070 OVC080 12/01 A3025 RMK AO2
KCZT 150835Z AUTO 04008KT 10SM OVC080 12/01 A3024 RMK AO2
KCZT 150815Z AUTO 02008KT 10SM OVC080 12/02 A3022 RMK AO2
KCZT 150755Z AUTO 36004KT 10SM BKN090 OVC100 12/03 A3022 RMK AO2
KCZT 150735Z AUTO 34003KT 10SM OVC100 12/04 A3021 RMK AO2
KCZT 150715Z AUTO 00000KT 10SM OVC100 11/04 A3020 RMK AO2
KCZT 150655Z AUTO 00000KT 10SM BKN100 12/03 A3018 RMK AO2
KCZT 150635Z AUTO 02003KT 10SM SCT120 11/05 A3017 RMK AO2
KCZT 150615Z AUTO 00000KT 10SM SCT110 11/06 A3017 RMK AO2
KCZT 150555Z AUTO 00000KT 10SM CLR 11/06 A3015 RMK AO2
KCZT 150535Z AUTO 00000KT 10SM CLR 11/06 A3015 RMK AO2
KCZT 150515Z AUTO 03003KT 10SM SCT110 11/06 A3013 RMK AO2
KCZT 150455Z AUTO 00000KT 10SM SCT110 11/07 A3012 RMK AO2
KCZT 150435Z AUTO 02003KT 10SM CLR 12/07 A3012 RMK AO2
KCZT 150415Z AUTO 00000KT 10SM SCT110 12/07 A3012 RMK AO2
KCZT 150355Z AUTO 00000KT 10SM SCT110 12/07 A3011 RMK AO2
KCZT 150335Z AUTO 00000KT 10SM SCT110 12/07 A3011 RMK AO2
KCZT 150315Z AUTO 00000KT 10SM CLR 12/07 A3010 RMK AO2
KCZT 150255Z AUTO 00000KT 10SM CLR 12/07 A3008 RMK AO2
KCZT 150235Z AUTO 00000KT 10SM CLR 13/07 A3007 RMK AO2
KCZT 150215Z AUTO 00000KT 10SM CLR 13/07 A3005 RMK AO2
KCZT 150155Z AUTO 36003KT 10SM CLR 13/07 A3004 RMK AO2
KCZT 150135Z AUTO 36003KT 10SM CLR 13/07 A3004 RMK AO2
KCZT 150120Z AUTO 36003KT 10SM CLR 13/07 A3002 RMK AO2
KCZT 150055Z AUTO 36003KT 10SM CLR 13/07 A3001 RMK AO2
KCZT 150035Z AUTO 00000KT 10SM SCT110 14/07 A3000 RMK AO2
KCZT 150015Z AUTO 03003KT 10SM OVC110 15/07 A2999 RMK AO2
KCZT 142355Z AUTO 02004KT 10SM BKN110 15/07 A2999 RMK AO2
KCZT 142335Z AUTO 03004KT 10SM SCT110 16/07 A2997 RMK AO2
KCZT 142315Z AUTO 04003KT 10SM SCT110 16/06 A2996 RMK AO2
KCZT 142255Z AUTO 04003KT 10SM SCT110 17/06 A2996 RMK AO2
KCZT 142235Z AUTO 03005KT 10SM CLR 17/06 A2995 RMK AO2
KCZT 142215Z AUTO 04004KT 10SM CLR 17/06 A2995 RMK AO2
KCZT 142155Z AUTO 04004KT 10SM CLR 17/06 A2995 RMK AO2
KCZT 142135Z AUTO 00000KT 10SM SCT110 18/06 A2995 RMK AO2
KCZT 142115Z AUTO 03004KT 10SM BKN110 18/06 A2995 RMK AO2
KCZT 142055Z AUTO 00000KT 10SM BKN110 18/06 A2995 RMK AO2
KCZT 142035Z AUTO 00000KT 10SM SCT120 18/06 A2995 RMK AO2
KCZT 142015Z AUTO 00000KT 10SM CLR 17/05 A2995 RMK AO2
KCZT 141955Z AUTO 33004KT 10SM CLR 17/06 A2995 RMK AO2
KCZT 141935Z AUTO 00000KT 10SM CLR 17/06 A2995 RMK AO2
KCZT 141915Z AUTO 00000KT 10SM CLR 17/06 A2997 RMK AO2
KCZT 141855Z AUTO 00000KT 10SM CLR 16/05 A2997 RMK AO2
KCZT 141835Z AUTO 00000KT 10SM CLR 16/05 A2998 RMK AO2
KCZT 141815Z AUTO 00000KT 10SM CLR 15/05 A2998 RMK AO2
KCZT 141755Z AUTO 00000KT 10SM CLR 14/05 A2998 RMK AO2
KCZT 141735Z AUTO 00000KT 10SM CLR 13/05 A3000 RMK AO2
KCZT 141715Z AUTO 00000KT 10SM CLR 13/05 A3001 RMK AO2
KCZT 141655Z AUTO 00000KT 10SM CLR 12/06 A3001 RMK AO2
KCZT 141635Z AUTO 00000KT 10SM CLR 11/05 A3001 RMK AO2
KCZT 141615Z AUTO 00000KT 10SM CLR 10/05 A3001 RMK AO2
KCZT 141555Z AUTO 00000KT 10SM CLR 09/06 A3001 RMK AO2
KCZT 141535Z AUTO 00000KT 10SM CLR 08/06 A2999 RMK AO2